EGKK/LGW METAR and TAF weather

Enter ICAO airport designator
Station Type Date Time Source
EGKK METAR 2019/06/18 17:20 UTC NOAA

EGKK 181720Z 04007KT 8000 FEW045 17/16 Q1011


Station Type Date Time Source
EGKK Decoded METAR 2019/06/18 17:20 UTC NOAA

London / Gatwick Airport, United Kingdom (EGKK) 51-09N 000-11W 0M
Jun 18, 2019 - 01:20 PM EDT / 2019.06.18 1720 UTC
Wind: from the NE (040 degrees) at 8 MPH (7 KT):0
Visibility: 4 mile(s):0
Sky conditions: mostly clear
Temperature: 62 F (17 C)
Dew Point: 60 F (16 C)
Relative Humidity: 93%
Pressure (altimeter): 29.85 in. Hg (1011 hPa)
ob: EGKK 181720Z 04007KT 8000 FEW045 17/16 Q1011
cycle: 17

Station Type Date Time Source
EGKK TAF 2019/06/18 18:09 UTC NOAA

TAF EGKK 181655Z 1818/1924 VRB03KT 9999 FEW040
TEMPO 1818/1916 4000 RA SHRA PROB30
TEMPO 1901/1912 VRB15G25KT +SHRA TSRA BKN010 BKN045CB
BECMG 1912/1915 27012KT

Example: see airport list